sensor_id;sensor_type;location;lat;lon;timestamp;temperature;humidity
46766;DHT22;32527;51.986;5.842;2023-03-04T00:01:00;5.50;99.90
46766;DHT22;32527;51.986;5.842;2023-03-04T00:03:26;5.70;99.90
46766;DHT22;32527;51.986;5.842;2023-03-04T00:05:51;5.40;99.90
46766;DHT22;32527;51.986;5.842;2023-03-04T00:08:17;5.40;99.90
46766;DHT22;32527;51.986;5.842;2023-03-04T00:10:43;5.50;99.90
46766;DHT22;32527;51.986;5.842;2023-03-04T00:13:09;5.50;99.90
46766;DHT22;32527;51.986;5.842;2023-03-04T00:15:34;5.50;99.90
46766;DHT22;32527;51.986;5.842;2023-03-04T00:18:00;5.50;99.90
46766;DHT22;32527;51.986;5.842;2023-03-04T00:20:26;5.50;99.90
46766;DHT22;32527;51.986;5.842;2023-03-04T00:22:51;5.50;99.90
46766;DHT22;32527;51.986;5.842;2023-03-04T00:25:17;5.40;99.90
46766;DHT22;32527;51.986;5.842;2023-03-04T00:27:43;7.50;99.90
46766;DHT22;32527;51.986;5.842;2023-03-04T00:30:09;7.30;99.90
46766;DHT22;32527;51.986;5.842;2023-03-04T00:32:35;5.50;99.90
46766;DHT22;32527;51.986;5.842;2023-03-04T00:35:02;5.50;99.90
46766;DHT22;32527;51.986;5.842;2023-03-04T00:39:54;5.50;99.90
46766;DHT22;32527;51.986;5.842;2023-03-04T00:42:20;7.50;99.90
46766;DHT22;32527;51.986;5.842;2023-03-04T00:44:45;5.50;99.90
46766;DHT22;32527;51.986;5.842;2023-03-04T00:47:11;5.50;99.90
46766;DHT22;32527;51.986;5.842;2023-03-04T00:49:37;5.50;99.90
46766;DHT22;32527;51.986;5.842;2023-03-04T00:52:02;5.50;99.90
46766;DHT22;32527;51.986;5.842;2023-03-04T00:54:28;5.50;99.90
46766;DHT22;32527;51.986;5.842;2023-03-04T00:56:54;5.50;99.90
46766;DHT22;32527;51.986;5.842;2023-03-04T00:59:19;5.30;99.90
46766;DHT22;32527;51.986;5.842;2023-03-04T01:01:45;5.40;99.90
46766;DHT22;32527;51.986;5.842;2023-03-04T01:06:37;5.50;99.90
46766;DHT22;32527;51.986;5.842;2023-03-04T01:09:02;7.10;99.90
46766;DHT22;32527;51.986;5.842;2023-03-04T01:11:29;5.40;99.90
46766;DHT22;32527;51.986;5.842;2023-03-04T01:13:54;5.40;99.90
46766;DHT22;32527;51.986;5.842;2023-03-04T01:16:23;5.60;99.90
46766;DHT22;32527;51.986;5.842;2023-03-04T01:18:48;5.30;99.90
46766;DHT22;32527;51.986;5.842;2023-03-04T01:21:14;6.90;99.90
46766;DHT22;32527;51.986;5.842;2023-03-04T01:31:01;5.40;99.90
46766;DHT22;32527;51.986;5.842;2023-03-04T01:38:29;5.40;99.90
46766;DHT22;32527;51.986;5.842;2023-03-04T01:41:23;5.40;99.90
46766;DHT22;32527;51.986;5.842;2023-03-04T01:51:15;5.40;99.90
46766;DHT22;32527;51.986;5.842;2023-03-04T01:53:43;5.40;99.90
46766;DHT22;32527;51.986;5.842;2023-03-04T01:56:21;5.60;99.90
46766;DHT22;32527;51.986;5.842;2023-03-04T01:59:13;5.40;99.90
46766;DHT22;32527;51.986;5.842;2023-03-04T02:01:41;5.50;99.90
46766;DHT22;32527;51.986;5.842;2023-03-04T02:04:09;5.50;99.90
46766;DHT22;32527;51.986;5.842;2023-03-04T02:06:37;5.40;99.90
46766;DHT22;32527;51.986;5.842;2023-03-04T02:09:04;5.40;99.90
46766;DHT22;32527;51.986;5.842;2023-03-04T02:13:58;5.40;99.90
46766;DHT22;32527;51.986;5.842;2023-03-04T02:16:25;5.40;99.90
46766;DHT22;32527;51.986;5.842;2023-03-04T02:24:05;7.80;99.90
46766;DHT22;32527;51.986;5.842;2023-03-04T02:29:02;5.40;99.90
46766;DHT22;32527;51.986;5.842;2023-03-04T02:31:34;5.30;99.90
46766;DHT22;32527;51.986;5.842;2023-03-04T02:34:04;5.40;99.90
46766;DHT22;32527;51.986;5.842;2023-03-04T02:36:31;5.40;99.90
46766;DHT22;32527;51.986;5.842;2023-03-04T02:39:02;5.40;99.90
46766;DHT22;32527;51.986;5.842;2023-03-04T02:48:50;5.40;99.90
46766;DHT22;32527;51.986;5.842;2023-03-04T02:58:36;5.30;99.90
46766;DHT22;32527;51.986;5.842;2023-03-04T03:01:04;5.30;99.90
46766;DHT22;32527;51.986;5.842;2023-03-04T03:40:08;5.30;99.90
46766;DHT22;32527;51.986;5.842;2023-03-04T03:42:36;5.30;99.90
46766;DHT22;32527;51.986;5.842;2023-03-04T03:45:08;5.20;99.90
46766;DHT22;32527;51.986;5.842;2023-03-04T04:04:50;5.20;99.90
46766;DHT22;32527;51.986;5.842;2023-03-04T04:07:16;5.30;99.90
46766;DHT22;32527;51.986;5.842;2023-03-04T04:09:42;5.20;99.90
46766;DHT22;32527;51.986;5.842;2023-03-04T04:12:07;5.20;99.90
46766;DHT22;32527;51.986;5.842;2023-03-04T04:14:33;5.30;99.90
46766;DHT22;32527;51.986;5.842;2023-03-04T04:16:59;5.10;99.90
46766;DHT22;32527;51.986;5.842;2023-03-04T04:19:25;5.40;99.90
46766;DHT22;32527;51.986;5.842;2023-03-04T04:21:50;5.20;99.90
46766;DHT22;32527;51.986;5.842;2023-03-04T04:26:42;5.20;99.90
46766;DHT22;32527;51.986;5.842;2023-03-04T04:29:08;7.00;99.90
46766;DHT22;32527;51.986;5.842;2023-03-04T04:31:34;5.20;99.90
46766;DHT22;32527;51.986;5.842;2023-03-04T04:34:00;5.20;99.90
46766;DHT22;32527;51.986;5.842;2023-03-04T04:38:52;5.20;99.90
46766;DHT22;32527;51.986;5.842;2023-03-04T04:41:30;5.20;99.90
46766;DHT22;32527;51.986;5.842;2023-03-04T04:48:49;5.20;99.90
46766;DHT22;32527;51.986;5.842;2023-03-04T04:56:13;5.20;99.90
46766;DHT22;32527;51.986;5.842;2023-03-04T05:01:05;5.10;99.90
46766;DHT22;32527;51.986;5.842;2023-03-04T05:03:33;5.10;99.90
46766;DHT22;32527;51.986;5.842;2023-03-04T05:08:25;5.10;99.90
46766;DHT22;32527;51.986;5.842;2023-03-04T05:10:51;5.10;99.90
46766;DHT22;32527;51.986;5.842;2023-03-04T05:18:10;5.10;99.90
46766;DHT22;32527;51.986;5.842;2023-03-04T05:20:36;5.10;99.90
46766;DHT22;32527;51.986;5.842;2023-03-04T05:23:01;5.10;99.90
46766;DHT22;32527;51.986;5.842;2023-03-04T05:25:27;5.10;99.90
46766;DHT22;32527;51.986;5.842;2023-03-04T05:27:53;5.10;99.90
46766;DHT22;32527;51.986;5.842;2023-03-04T05:35:10;5.20;99.90
46766;DHT22;32527;51.986;5.842;2023-03-04T05:40:03;5.00;99.90
46766;DHT22;32527;51.986;5.842;2023-03-04T05:42:29;5.10;99.90
46766;DHT22;32527;51.986;5.842;2023-03-04T05:44:55;5.00;99.90
46766;DHT22;32527;51.986;5.842;2023-03-04T05:47:20;5.00;99.90
46766;DHT22;32527;51.986;5.842;2023-03-04T05:49:46;5.00;99.90
46766;DHT22;32527;51.986;5.842;2023-03-04T05:52:12;5.00;99.90
46766;DHT22;32527;51.986;5.842;2023-03-04T05:54:38;6.90;99.90
46766;DHT22;32527;51.986;5.842;2023-03-04T06:01:55;5.00;99.90
46766;DHT22;32527;51.986;5.842;2023-03-04T06:04:21;5.00;99.90
46766;DHT22;32527;51.986;5.842;2023-03-04T06:06:47;5.00;99.90
46766;DHT22;32527;51.986;5.842;2023-03-04T06:09:13;5.00;99.90
46766;DHT22;32527;51.986;5.842;2023-03-04T06:14:05;4.90;99.90
46766;DHT22;32527;51.986;5.842;2023-03-04T06:16:31;5.00;99.90
46766;DHT22;32527;51.986;5.842;2023-03-04T06:21:23;5.00;99.90
46766;DHT22;32527;51.986;5.842;2023-03-04T06:26:15;5.00;99.90
46766;DHT22;32527;51.986;5.842;2023-03-04T06:28:41;4.90;99.90
46766;DHT22;32527;51.986;5.842;2023-03-04T06:38:25;5.00;99.90
46766;DHT22;32527;51.986;5.842;2023-03-04T06:40:51;5.00;99.90
46766;DHT22;32527;51.986;5.842;2023-03-04T06:50:35;4.90;99.90
46766;DHT22;32527;51.986;5.842;2023-03-04T06:53:01;4.90;99.90
46766;DHT22;32527;51.986;5.842;2023-03-04T07:00:19;4.90;99.90
46766;DHT22;32527;51.986;5.842;2023-03-04T07:02:45;4.90;99.90
46766;DHT22;32527;51.986;5.842;2023-03-04T07:05:10;5.00;99.90
46766;DHT22;32527;51.986;5.842;2023-03-04T07:07:37;4.90;99.90
46766;DHT22;32527;51.986;5.842;2023-03-04T07:10:03;5.00;99.90
46766;DHT22;32527;51.986;5.842;2023-03-04T07:12:29;5.00;99.90
46766;DHT22;32527;51.986;5.842;2023-03-04T07:14:54;5.00;99.90
46766;DHT22;32527;51.986;5.842;2023-03-04T07:17:20;5.10;99.90
46766;DHT22;32527;51.986;5.842;2023-03-04T07:36:48;5.80;99.90
46766;DHT22;32527;51.986;5.842;2023-03-04T07:41:40;5.90;99.90
46766;DHT22;32527;51.986;5.842;2023-03-04T07:44:07;5.90;99.90
46766;DHT22;32527;51.986;5.842;2023-03-04T07:46:33;5.90;99.90
46766;DHT22;32527;51.986;5.842;2023-03-04T07:48:59;5.90;99.90
46766;DHT22;32527;51.986;5.842;2023-03-04T07:51:26;5.90;99.90
46766;DHT22;32527;51.986;5.842;2023-03-04T07:53:57;6.10;99.90
46766;DHT22;32527;51.986;5.842;2023-03-04T07:56:26;6.30;99.90
46766;DHT22;32527;51.986;5.842;2023-03-04T07:58:53;6.20;99.90
46766;DHT22;32527;51.986;5.842;2023-03-04T08:01:25;6.40;99.90
46766;DHT22;32527;51.986;5.842;2023-03-04T08:03:53;7.70;99.90
46766;DHT22;32527;51.986;5.842;2023-03-04T08:06:19;6.50;99.90
46766;DHT22;32527;51.986;5.842;2023-03-04T08:08:45;6.40;99.90
46766;DHT22;32527;51.986;5.842;2023-03-04T08:11:17;6.40;99.90
46766;DHT22;32527;51.986;5.842;2023-03-04T08:13:43;6.40;99.90
46766;DHT22;32527;51.986;5.842;2023-03-04T08:16:14;6.40;99.90
46766;DHT22;32527;51.986;5.842;2023-03-04T08:18:41;6.30;99.90
46766;DHT22;32527;51.986;5.842;2023-03-04T08:21:09;6.30;99.90
46766;DHT22;32527;51.986;5.842;2023-03-04T08:26:06;6.30;99.90
46766;DHT22;32527;51.986;5.842;2023-03-04T08:28:33;6.20;99.90
46766;DHT22;32527;51.986;5.842;2023-03-04T08:33:24;6.40;99.90
46766;DHT22;32527;51.986;5.842;2023-03-04T08:46:15;6.80;99.90
46766;DHT22;32527;51.986;5.842;2023-03-04T08:51:10;6.90;99.90
46766;DHT22;32527;51.986;5.842;2023-03-04T08:53:37;6.70;99.90
46766;DHT22;32527;51.986;5.842;2023-03-04T08:56:03;6.50;99.90
46766;DHT22;32527;51.986;5.842;2023-03-04T08:58:29;6.50;99.90
46766;DHT22;32527;51.986;5.842;2023-03-04T09:00:55;6.40;99.90
46766;DHT22;32527;51.986;5.842;2023-03-04T09:05:49;6.40;99.90
46766;DHT22;32527;51.986;5.842;2023-03-04T09:08:15;6.50;99.90
46766;DHT22;32527;51.986;5.842;2023-03-04T09:13:11;6.40;99.90
46766;DHT22;32527;51.986;5.842;2023-03-04T09:16:43;6.30;99.90
46766;DHT22;32527;51.986;5.842;2023-03-04T09:20:33;6.50;99.90
46766;DHT22;32527;51.986;5.842;2023-03-04T09:23:06;6.20;99.90
46766;DHT22;32527;51.986;5.842;2023-03-04T09:26:18;6.30;99.90
46766;DHT22;32527;51.986;5.842;2023-03-04T09:28:56;6.80;99.90
46766;DHT22;32527;51.986;5.842;2023-03-04T09:41:43;6.40;99.90
46766;DHT22;32527;51.986;5.842;2023-03-04T09:44:31;6.30;99.90
46766;DHT22;32527;51.986;5.842;2023-03-04T09:47:02;6.40;99.90
46766;DHT22;32527;51.986;5.842;2023-03-04T09:49:29;6.40;99.90
46766;DHT22;32527;51.986;5.842;2023-03-04T09:52:37;6.40;99.90
46766;DHT22;32527;51.986;5.842;2023-03-04T09:55:40;6.50;99.90
46766;DHT22;32527;51.986;5.842;2023-03-04T09:58:59;6.70;99.90
46766;DHT22;32527;51.986;5.842;2023-03-04T10:05:19;7.20;99.90
46766;DHT22;32527;51.986;5.842;2023-03-04T10:07:55;7.20;99.90
46766;DHT22;32527;51.986;5.842;2023-03-04T10:10:35;7.30;99.90
46766;DHT22;32527;51.986;5.842;2023-03-04T10:13:34;7.30;99.90
46766;DHT22;32527;51.986;5.842;2023-03-04T10:16:09;7.60;99.90
46766;DHT22;32527;51.986;5.842;2023-03-04T10:18:38;7.80;99.90
46766;DHT22;32527;51.986;5.842;2023-03-04T10:23:39;8.00;99.90
46766;DHT22;32527;51.986;5.842;2023-03-04T10:26:13;8.00;99.90
46766;DHT22;32527;51.986;5.842;2023-03-04T10:28:39;7.90;99.90
46766;DHT22;32527;51.986;5.842;2023-03-04T10:31:20;7.70;99.90
46766;DHT22;32527;51.986;5.842;2023-03-04T10:33:52;7.70;99.90
46766;DHT22;32527;51.986;5.842;2023-03-04T10:39:16;7.60;99.90
46766;DHT22;32527;51.986;5.842;2023-03-04T10:41:59;8.00;99.90
46766;DHT22;32527;51.986;5.842;2023-03-04T10:44:27;8.00;99.90
46766;DHT22;32527;51.986;5.842;2023-03-04T10:46:54;8.10;99.90
46766;DHT22;32527;51.986;5.842;2023-03-04T10:59:45;8.40;99.90
46766;DHT22;32527;51.986;5.842;2023-03-04T11:02:33;8.40;99.90
46766;DHT22;32527;51.986;5.842;2023-03-04T11:07:45;8.70;99.90
46766;DHT22;32527;51.986;5.842;2023-03-04T11:10:19;8.80;99.90
46766;DHT22;32527;51.986;5.842;2023-03-04T11:12:48;8.60;99.90
46766;DHT22;32527;51.986;5.842;2023-03-04T11:15:21;8.50;99.90
46766;DHT22;32527;51.986;5.842;2023-03-04T11:18:09;8.40;99.90
46766;DHT22;32527;51.986;5.842;2023-03-04T11:20:41;8.10;99.90
46766;DHT22;32527;51.986;5.842;2023-03-04T11:23:15;8.00;99.90
46766;DHT22;32527;51.986;5.842;2023-03-04T11:25:44;7.80;99.90
46766;DHT22;32527;51.986;5.842;2023-03-04T11:28:21;7.70;99.90
46766;DHT22;32527;51.986;5.842;2023-03-04T11:31:03;7.90;99.90
46766;DHT22;32527;51.986;5.842;2023-03-04T11:36:39;8.00;99.90
46766;DHT22;32527;51.986;5.842;2023-03-04T11:39:21;8.30;99.90
46766;DHT22;32527;51.986;5.842;2023-03-04T11:41:57;9.20;99.90
46766;DHT22;32527;51.986;5.842;2023-03-04T11:44:24;9.00;99.90
46766;DHT22;32527;51.986;5.842;2023-03-04T11:47:36;9.30;99.90
46766;DHT22;32527;51.986;5.842;2023-03-04T11:55:23;9.20;99.90
46766;DHT22;32527;51.986;5.842;2023-03-04T12:01:14;9.10;99.90
46766;DHT22;32527;51.986;5.842;2023-03-04T12:06:31;8.70;99.90
46766;DHT22;32527;51.986;5.842;2023-03-04T12:09:22;8.60;99.90
46766;DHT22;32527;51.986;5.842;2023-03-04T12:12:17;8.40;99.90
46766;DHT22;32527;51.986;5.842;2023-03-04T12:17:36;8.40;99.90
46766;DHT22;32527;51.986;5.842;2023-03-04T12:26:00;9.00;99.90
46766;DHT22;32527;51.986;5.842;2023-03-04T12:31:41;9.50;99.90
46766;DHT22;32527;51.986;5.842;2023-03-04T12:34:30;9.60;99.90
46766;DHT22;32527;51.986;5.842;2023-03-04T12:37:03;9.30;99.90
46766;DHT22;32527;51.986;5.842;2023-03-04T12:45:26;8.60;99.90
46766;DHT22;32527;51.986;5.842;2023-03-04T12:53:32;7.40;99.90
46766;DHT22;32527;51.986;5.842;2023-03-04T12:56:00;7.30;99.90
46766;DHT22;32527;51.986;5.842;2023-03-04T12:58:29;7.10;99.90
46766;DHT22;32527;51.986;5.842;2023-03-04T13:01:15;7.00;99.90
46766;DHT22;32527;51.986;5.842;2023-03-04T13:06:47;7.40;99.90
46766;DHT22;32527;51.986;5.842;2023-03-04T13:09:32;7.60;99.90
46766;DHT22;32527;51.986;5.842;2023-03-04T13:12:10;8.30;99.90
46766;DHT22;32527;51.986;5.842;2023-03-04T13:14:38;8.10;99.90
46766;DHT22;32527;51.986;5.842;2023-03-04T13:22:53;8.90;99.90
46766;DHT22;32527;51.986;5.842;2023-03-04T13:25:39;9.20;99.90
46766;DHT22;32527;51.986;5.842;2023-03-04T13:30:38;9.20;99.90
46766;DHT22;32527;51.986;5.842;2023-03-04T13:41:57;8.70;99.90
46766;DHT22;32527;51.986;5.842;2023-03-04T13:44:04;8.70;99.90
46766;DHT22;32527;51.986;5.842;2023-03-04T13:46:47;8.80;99.90
46766;DHT22;32527;51.986;5.842;2023-03-04T13:49:21;8.70;99.90
46766;DHT22;32527;51.986;5.842;2023-03-04T13:51:49;8.60;99.90
46766;DHT22;32527;51.986;5.842;2023-03-04T13:54:28;8.60;99.90
46766;DHT22;32527;51.986;5.842;2023-03-04T13:59:29;8.10;99.90
46766;DHT22;32527;51.986;5.842;2023-03-04T14:02:21;8.40;99.90
46766;DHT22;32527;51.986;5.842;2023-03-04T14:10:00;8.20;99.90
46766;DHT22;32527;51.986;5.842;2023-03-04T14:12:29;8.20;99.90
46766;DHT22;32527;51.986;5.842;2023-03-04T14:17:38;8.00;99.90
46766;DHT22;32527;51.986;5.842;2023-03-04T14:20:35;7.60;99.90
46766;DHT22;32527;51.986;5.842;2023-03-04T14:28:16;7.90;99.90
46766;DHT22;32527;51.986;5.842;2023-03-04T14:30:49;8.00;99.90
46766;DHT22;32527;51.986;5.842;2023-03-04T14:33:18;7.90;99.90
46766;DHT22;32527;51.986;5.842;2023-03-04T14:35:51;9.90;99.90
46766;DHT22;32527;51.986;5.842;2023-03-04T14:38:32;8.00;99.90
46766;DHT22;32527;51.986;5.842;2023-03-04T14:41:07;9.80;99.90
46766;DHT22;32527;51.986;5.842;2023-03-04T14:43:41;8.10;99.90
46766;DHT22;32527;51.986;5.842;2023-03-04T14:46:12;7.70;99.90
46766;DHT22;32527;51.986;5.842;2023-03-04T14:48:46;7.70;99.90
46766;DHT22;32527;51.986;5.842;2023-03-04T14:53:55;7.80;99.90
46766;DHT22;32527;51.986;5.842;2023-03-04T14:56:53;7.70;99.90
46766;DHT22;32527;51.986;5.842;2023-03-04T14:59:34;7.70;99.90
46766;DHT22;32527;51.986;5.842;2023-03-04T15:02:26;8.00;99.90
46766;DHT22;32527;51.986;5.842;2023-03-04T15:08:26;8.10;99.90
46766;DHT22;32527;51.986;5.842;2023-03-04T15:11:03;8.20;99.90
46766;DHT22;32527;51.986;5.842;2023-03-04T15:13:49;8.30;99.90
46766;DHT22;32527;51.986;5.842;2023-03-04T15:16:17;8.30;99.90
46766;DHT22;32527;51.986;5.842;2023-03-04T15:19:02;8.40;99.90
46766;DHT22;32527;51.986;5.842;2023-03-04T15:21:38;8.40;99.90
46766;DHT22;32527;51.986;5.842;2023-03-04T15:24:27;8.30;99.90
46766;DHT22;32527;51.986;5.842;2023-03-04T15:27:57;8.20;99.90
46766;DHT22;32527;51.986;5.842;2023-03-04T15:30:49;8.00;99.90
46766;DHT22;32527;51.986;5.842;2023-03-04T15:34:19;7.80;99.90
46766;DHT22;32527;51.986;5.842;2023-03-04T15:41:01;7.80;99.90
46766;DHT22;32527;51.986;5.842;2023-03-04T15:45:46;7.80;99.90
46766;DHT22;32527;51.986;5.842;2023-03-04T15:48:33;7.60;99.90
46766;DHT22;32527;51.986;5.842;2023-03-04T15:52:12;7.60;99.90
46766;DHT22;32527;51.986;5.842;2023-03-04T15:57:19;7.40;99.90
46766;DHT22;32527;51.986;5.842;2023-03-04T15:59:49;7.30;99.90
46766;DHT22;32527;51.986;5.842;2023-03-04T16:02:19;7.30;99.90
46766;DHT22;32527;51.986;5.842;2023-03-04T16:07:46;7.20;99.90
46766;DHT22;32527;51.986;5.842;2023-03-04T16:10:21;7.20;99.90
46766;DHT22;32527;51.986;5.842;2023-03-04T16:15:18;7.20;99.90
46766;DHT22;32527;51.986;5.842;2023-03-04T16:20:15;7.20;99.90
46766;DHT22;32527;51.986;5.842;2023-03-04T16:22:42;7.20;99.90
46766;DHT22;32527;51.986;5.842;2023-03-04T16:25:12;7.10;99.90
46766;DHT22;32527;51.986;5.842;2023-03-04T16:27:39;7.10;99.90
46766;DHT22;32527;51.986;5.842;2023-03-04T16:30:07;7.10;99.90
46766;DHT22;32527;51.986;5.842;2023-03-04T16:34:59;7.00;99.90
46766;DHT22;32527;51.986;5.842;2023-03-04T16:37:47;7.00;99.90
46766;DHT22;32527;51.986;5.842;2023-03-04T16:40:15;7.00;99.90
46766;DHT22;32527;51.986;5.842;2023-03-04T16:45:18;6.90;99.90
46766;DHT22;32527;51.986;5.842;2023-03-04T16:47:44;6.90;99.90
46766;DHT22;32527;51.986;5.842;2023-03-04T16:50:14;6.90;99.90
46766;DHT22;32527;51.986;5.842;2023-03-04T16:52:43;6.80;99.90
46766;DHT22;32527;51.986;5.842;2023-03-04T16:55:30;6.70;99.90
46766;DHT22;32527;51.986;5.842;2023-03-04T16:57:56;6.70;99.90
46766;DHT22;32527;51.986;5.842;2023-03-04T17:00:26;6.60;99.90
46766;DHT22;32527;51.986;5.842;2023-03-04T17:02:57;6.50;99.90
46766;DHT22;32527;51.986;5.842;2023-03-04T17:05:29;6.40;99.90
46766;DHT22;32527;51.986;5.842;2023-03-04T17:07:55;6.40;99.90
46766;DHT22;32527;51.986;5.842;2023-03-04T17:12:48;6.30;99.90
46766;DHT22;32527;51.986;5.842;2023-03-04T17:17:42;6.20;99.90
46766;DHT22;32527;51.986;5.842;2023-03-04T17:20:13;6.40;99.90
46766;DHT22;32527;51.986;5.842;2023-03-04T17:22:39;6.10;99.90
46766;DHT22;32527;51.986;5.842;2023-03-04T17:25:06;6.20;99.90
46766;DHT22;32527;51.986;5.842;2023-03-04T17:29:57;6.20;99.90
46766;DHT22;32527;51.986;5.842;2023-03-04T17:32:25;6.20;99.90
46766;DHT22;32527;51.986;5.842;2023-03-04T17:34:56;6.20;99.90
46766;DHT22;32527;51.986;5.842;2023-03-04T17:37:21;6.20;99.90
46766;DHT22;32527;51.986;5.842;2023-03-04T17:39:47;6.20;99.90
46766;DHT22;32527;51.986;5.842;2023-03-04T17:42:13;6.20;99.90
46766;DHT22;32527;51.986;5.842;2023-03-04T17:44:38;6.10;99.90
46766;DHT22;32527;51.986;5.842;2023-03-04T17:49:31;5.80;99.90
46766;DHT22;32527;51.986;5.842;2023-03-04T17:51:59;6.20;99.90
46766;DHT22;32527;51.986;5.842;2023-03-04T17:54:24;6.10;99.90
46766;DHT22;32527;51.986;5.842;2023-03-04T17:56:50;6.00;99.90
46766;DHT22;32527;51.986;5.842;2023-03-04T17:59:16;5.40;99.90
46766;DHT22;32527;51.986;5.842;2023-03-04T18:01:44;5.90;99.90
46766;DHT22;32527;51.986;5.842;2023-03-04T18:04:11;5.90;99.90
46766;DHT22;32527;51.986;5.842;2023-03-04T18:09:03;5.90;99.90
46766;DHT22;32527;51.986;5.842;2023-03-04T18:11:29;5.90;99.90
46766;DHT22;32527;51.986;5.842;2023-03-04T18:13:56;5.90;99.90
46766;DHT22;32527;51.986;5.842;2023-03-04T18:16:21;6.00;99.90
46766;DHT22;32527;51.986;5.842;2023-03-04T18:18:56;5.90;99.90
46766;DHT22;32527;51.986;5.842;2023-03-04T18:21:23;5.90;99.90
46766;DHT22;32527;51.986;5.842;2023-03-04T18:23:49;5.50;99.90
46766;DHT22;32527;51.986;5.842;2023-03-04T18:26:16;5.80;99.90
46766;DHT22;32527;51.986;5.842;2023-03-04T18:28:42;5.60;99.90
46766;DHT22;32527;51.986;5.842;2023-03-04T18:31:08;5.70;99.90
46766;DHT22;32527;51.986;5.842;2023-03-04T18:33:35;5.60;99.90
46766;DHT22;32527;51.986;5.842;2023-03-04T18:36:07;5.60;99.90
46766;DHT22;32527;51.986;5.842;2023-03-04T18:38:33;5.60;99.90
46766;DHT22;32527;51.986;5.842;2023-03-04T18:41:01;5.50;99.90
46766;DHT22;32527;51.986;5.842;2023-03-04T18:43:27;5.50;99.90
46766;DHT22;32527;51.986;5.842;2023-03-04T18:49:20;5.40;99.90
46766;DHT22;32527;51.986;5.842;2023-03-04T18:54:12;5.50;99.90
46766;DHT22;32527;51.986;5.842;2023-03-04T18:59:17;5.40;99.90
46766;DHT22;32527;51.986;5.842;2023-03-04T19:04:11;5.50;99.90
46766;DHT22;32527;51.986;5.842;2023-03-04T19:28:34;5.20;99.90
46766;DHT22;32527;51.986;5.842;2023-03-04T19:31:04;5.20;99.90
46766;DHT22;32527;51.986;5.842;2023-03-04T19:33:30;5.20;99.90
46766;DHT22;32527;51.986;5.842;2023-03-04T19:50:33;5.30;99.90
46766;DHT22;32527;51.986;5.842;2023-03-04T19:52:58;5.20;99.90
46766;DHT22;32527;51.986;5.842;2023-03-04T20:00:16;5.20;99.90
46766;DHT22;32527;51.986;5.842;2023-03-04T20:10:05;5.00;99.90
46766;DHT22;32527;51.986;5.842;2023-03-04T20:27:12;4.90;99.90
46766;DHT22;32527;51.986;5.842;2023-03-04T20:32:05;4.90;99.90
46766;DHT22;32527;51.986;5.842;2023-03-04T20:34:30;4.90;99.90
46766;DHT22;32527;51.986;5.842;2023-03-04T20:36:56;7.30;99.90
46766;DHT22;32527;51.986;5.842;2023-03-04T20:46:43;4.90;99.90
46766;DHT22;32527;51.986;5.842;2023-03-04T20:49:13;4.90;99.90
46766;DHT22;32527;51.986;5.842;2023-03-04T20:56:36;4.90;99.90
46766;DHT22;32527;51.986;5.842;2023-03-04T20:59:06;4.90;99.90
46766;DHT22;32527;51.986;5.842;2023-03-04T21:01:37;4.90;99.90
46766;DHT22;32527;51.986;5.842;2023-03-04T21:09:03;4.90;99.90
46766;DHT22;32527;51.986;5.842;2023-03-04T21:11:29;4.80;99.90
46766;DHT22;32527;51.986;5.842;2023-03-04T21:16:27;4.50;99.90
46766;DHT22;32527;51.986;5.842;2023-03-04T21:21:27;4.60;99.90
46766;DHT22;32527;51.986;5.842;2023-03-04T21:23:54;4.50;99.90
46766;DHT22;32527;51.986;5.842;2023-03-04T21:26:21;4.40;99.90
46766;DHT22;32527;51.986;5.842;2023-03-04T21:31:35;4.20;99.90
46766;DHT22;32527;51.986;5.842;2023-03-04T21:41:22;4.10;99.90
46766;DHT22;32527;51.986;5.842;2023-03-04T21:43:48;4.10;99.90
46766;DHT22;32527;51.986;5.842;2023-03-04T21:46:16;3.90;99.90
46766;DHT22;32527;51.986;5.842;2023-03-04T21:51:11;3.90;99.90
46766;DHT22;32527;51.986;5.842;2023-03-04T21:53:37;3.80;99.90
46766;DHT22;32527;51.986;5.842;2023-03-04T21:56:03;3.80;99.90
46766;DHT22;32527;51.986;5.842;2023-03-04T21:58:29;3.80;99.90
46766;DHT22;32527;51.986;5.842;2023-03-04T22:00:55;3.70;99.90
46766;DHT22;32527;51.986;5.842;2023-03-04T22:03:23;3.70;99.90
46766;DHT22;32527;51.986;5.842;2023-03-04T22:05:50;3.70;99.90
46766;DHT22;32527;51.986;5.842;2023-03-04T22:08:18;3.60;99.90
46766;DHT22;32527;51.986;5.842;2023-03-04T22:10:45;3.60;99.90
46766;DHT22;32527;51.986;5.842;2023-03-04T22:13:13;3.60;99.90
46766;DHT22;32527;51.986;5.842;2023-03-04T22:15:41;3.60;99.90
46766;DHT22;32527;51.986;5.842;2023-03-04T22:18:09;3.70;99.90
46766;DHT22;32527;51.986;5.842;2023-03-04T22:20:36;3.70;99.90
46766;DHT22;32527;51.986;5.842;2023-03-04T22:23:03;3.80;99.90
46766;DHT22;32527;51.986;5.842;2023-03-04T22:25:28;3.80;99.90
46766;DHT22;32527;51.986;5.842;2023-03-04T22:27:55;3.90;99.90
46766;DHT22;32527;51.986;5.842;2023-03-04T22:30:21;3.90;99.90
46766;DHT22;32527;51.986;5.842;2023-03-04T22:32:47;4.00;99.90
46766;DHT22;32527;51.986;5.842;2023-03-04T22:35:14;4.00;99.90
46766;DHT22;32527;51.986;5.842;2023-03-04T22:37:41;4.00;99.90
46766;DHT22;32527;51.986;5.842;2023-03-04T22:40:07;4.10;99.90
46766;DHT22;32527;51.986;5.842;2023-03-04T22:42:33;4.40;99.90
46766;DHT22;32527;51.986;5.842;2023-03-04T22:44:59;4.10;99.90
46766;DHT22;32527;51.986;5.842;2023-03-04T22:47:25;4.10;99.90
46766;DHT22;32527;51.986;5.842;2023-03-04T22:49:50;4.10;99.90
46766;DHT22;32527;51.986;5.842;2023-03-04T22:52:16;4.10;99.90
46766;DHT22;32527;51.986;5.842;2023-03-04T22:57:08;4.00;99.90
46766;DHT22;32527;51.986;5.842;2023-03-04T22:59:34;3.90;99.90
46766;DHT22;32527;51.986;5.842;2023-03-04T23:02:00;3.80;99.90
46766;DHT22;32527;51.986;5.842;2023-03-04T23:04:26;3.70;99.90
46766;DHT22;32527;51.986;5.842;2023-03-04T23:06:51;3.40;99.90
46766;DHT22;32527;51.986;5.842;2023-03-04T23:09:17;3.60;99.90
46766;DHT22;32527;51.986;5.842;2023-03-04T23:14:09;3.50;99.90
46766;DHT22;32527;51.986;5.842;2023-03-04T23:16:37;3.50;99.90
46766;DHT22;32527;51.986;5.842;2023-03-04T23:19:07;3.40;99.90
46766;DHT22;32527;51.986;5.842;2023-03-04T23:21:36;3.40;99.90
46766;DHT22;32527;51.986;5.842;2023-03-04T23:24:03;3.40;99.90
46766;DHT22;32527;51.986;5.842;2023-03-04T23:26:32;3.50;99.90
46766;DHT22;32527;51.986;5.842;2023-03-04T23:28:59;3.50;99.90
46766;DHT22;32527;51.986;5.842;2023-03-04T23:31:29;3.50;99.90
46766;DHT22;32527;51.986;5.842;2023-03-04T23:36:28;3.50;99.90
46766;DHT22;32527;51.986;5.842;2023-03-04T23:38:55;3.50;99.90
46766;DHT22;32527;51.986;5.842;2023-03-04T23:41:23;3.50;99.90
46766;DHT22;32527;51.986;5.842;2023-03-04T23:43:51;3.60;99.90
46766;DHT22;32527;51.986;5.842;2023-03-04T23:48:44;3.60;99.90
46766;DHT22;32527;51.986;5.842;2023-03-04T23:51:12;3.50;99.90
46766;DHT22;32527;51.986;5.842;2023-03-04T23:53:38;3.60;99.90
46766;DHT22;32527;51.986;5.842;2023-03-04T23:56:08;3.40;99.90
46766;DHT22;32527;51.986;5.842;2023-03-04T23:58:34;3.60;99.90
